Oceanside, Oregon
Current Conditions -  °F | °C
As of 11:35 PM on Wednesday 22 Oct 2014 (Local Time) from KTMK Reporting Station
Overcast Overcast  
Wind Chill: 54°   Ceiling: 1700
Heat Index: 54°   Visibility: 10mi
Dew Point: 54°   Wind: 6mph
Humidity: 100%   Direction: 50°NE
Pressure: 29.77"   Gusts: NA
Location:  45.46°N, 123.97°W
Report Text: KTMK 230635Z AUTO 05005KT 10SM BKN017 BKN026 OVC047 12/12 A2977 RMK AO2 P0003
Loading
Personal Weather Stations






























Interactive Weather Map
Tropical Storm Tracking
New forecast layout! Learn more

10-Day Weather Forecast

Advertisements
Track Severe Weather on mobile